Time;durP1;ratioP1;P1;durP2;ratioP2;P2;SDS_P1;SDS_P2;PMS_P1;PMS_P2;Temp;Humidity;BMP_temperature;BMP_pressure;BME280_temperature;BME280_humidity;BME280_pressure;Samples;Min_cycle;Max_cycle;Signal;HPM_P1;HPM_P2
2023/10/06 00:00:50;;;;;;;8.77;7.00;;;13.40;99.00;;;;;;10406035;28;20229;-77
2023/10/06 00:05:53;;;;;;;8.00;6.93;;;13.30;99.10;;;;;;10420369;28;20195;-77
2023/10/06 00:10:55;;;;;;;13.83;7.63;;;13.30;99.20;;;;;;10420680;28;20285;-77
2023/10/06 00:15:59;;;;;;;13.20;6.90;;;13.30;99.30;;;;;;10421140;28;20234;-77
2023/10/06 00:21:05;;;;;;;21.93;8.40;;;13.20;99.50;;;;;;10418705;28;20361;-77
2023/10/06 00:26:11;;;;;;;10.87;6.30;;;13.20;99.30;;;;;;10417098;28;20217;-77
2023/10/06 00:31:17;;;;;;;10.27;6.67;;;13.20;99.30;;;;;;10410609;28;20234;-77
2023/10/06 00:36:28;;;;;;;13.17;6.97;;;13.10;99.30;;;;;;10395876;28;20268;-77
2023/10/06 00:41:31;;;;;;;11.73;7.17;;;13.10;99.30;;;;;;10418360;28;20222;-77
2023/10/06 00:46:34;;;;;;;6.90;6.07;;;13.00;99.10;;;;;;10411553;28;20608;-77
2023/10/06 00:51:41;;;;;;;6.60;5.37;;;13.00;99.60;;;;;;10419526;28;20229;-77
2023/10/06 00:56:43;;;;;;;10.47;6.60;;;13.00;99.30;;;;;;10417002;28;20230;-77
2023/10/06 01:01:47;;;;;;;9.80;5.37;;;13.00;99.30;;;;;;10415345;28;20225;-77
2023/10/06 01:06:49;;;;;;;8.10;6.27;;;13.00;99.30;;;;;;10416253;28;20253;-77
2023/10/06 01:11:51;;;;;;;8.37;6.10;;;12.90;99.30;;;;;;10415916;28;20309;-77
2023/10/06 01:17:14;;;;;;;8.43;5.93;;;12.90;99.10;;;;;;10415210;28;20227;-77
2023/10/06 01:22:24;;;;;;;9.33;5.97;;;12.90;99.10;;;;;;10409484;28;20503;-77
2023/10/06 01:27:26;;;;;;;8.40;6.00;;;12.90;99.30;;;;;;10422307;28;20663;-77
2023/10/06 01:32:28;;;;;;;8.00;5.70;;;12.90;99.30;;;;;;10413818;28;20223;-77
2023/10/06 01:37:32;;;;;;;8.57;6.23;;;12.90;99.50;;;;;;10422650;28;20269;-77
2023/10/06 01:42:35;;;;;;;9.63;6.30;;;12.80;99.10;;;;;;10421951;28;20204;-77
2023/10/06 01:47:37;;;;;;;8.53;5.90;;;12.80;99.30;;;;;;10421580;28;20194;-77
2023/10/06 01:52:40;;;;;;;8.00;6.30;;;12.80;99.30;;;;;;10412609;28;20198;-77
2023/10/06 01:57:44;;;;;;;10.87;7.23;;;12.80;99.30;;;;;;10419206;28;20224;-77
2023/10/06 02:02:50;;;;;;;7.83;5.50;;;12.80;99.40;;;;;;10416905;28;20197;-77
2023/10/06 02:08:00;;;;;;;26.03;18.57;;;12.80;99.40;;;;;;10424620;28;20207;-77
2023/10/06 02:13:02;;;;;;;9.73;6.10;;;12.80;99.10;;;;;;10447705;28;20206;-77
2023/10/06 02:18:12;;;;;;;14.60;13.07;;;12.70;99.00;;;;;;10422574;28;20238;-77
2023/10/06 02:23:15;;;;;;;38.90;25.30;;;12.70;99.10;;;;;;10419131;28;20692;-77
2023/10/06 02:28:20;;;;;;;19.37;12.03;;;12.70;99.20;;;;;;10418924;28;20217;-77
2023/10/06 02:33:24;;;;;;;15.23;10.50;;;12.60;99.20;;;;;;10420191;28;20210;-77
2023/10/06 02:38:40;;;;;;;8.83;6.00;;;12.60;99.40;;;;;;10428081;28;20696;-77
2023/10/06 02:43:42;;;;;;;9.30;7.43;;;12.70;99.30;;;;;;10426139;28;20209;-77
2023/10/06 02:48:49;;;;;;;8.40;7.27;;;12.60;99.10;;;;;;10411542;28;20237;-77
2023/10/06 02:53:59;;;;;;;8.90;6.03;;;12.60;99.20;;;;;;10418866;28;20202;-76
2023/10/06 02:59:15;;;;;;;9.83;7.27;;;12.50;99.10;;;;;;10396124;28;20284;-77
2023/10/06 03:04:17;;;;;;;9.87;6.30;;;12.60;99.40;;;;;;10435835;28;20212;-76
2023/10/06 03:09:27;;;;;;;63.87;26.90;;;12.50;99.00;;;;;;10431036;28;20785;-76
2023/10/06 03:14:38;;;;;;;41.43;24.70;;;12.50;99.20;;;;;;10423177;28;20780;-76
2023/10/06 03:19:44;;;;;;;91.67;44.50;;;12.50;99.20;;;;;;10427371;28;20274;-76
2023/10/06 03:25:16;;;;;;;24.13;13.50;;;12.50;99.20;;;;;;10416175;28;20229;-77
2023/10/06 03:30:41;;;;;;;23.23;13.27;;;12.40;99.20;;;;;;10415541;28;20218;-76
2023/10/06 03:36:04;;;;;;;15.07;9.20;;;12.40;99.20;;;;;;10411056;28;20246;-76
2023/10/06 03:41:31;;;;;;;22.33;13.77;;;12.40;99.20;;;;;;10424756;28;20227;-77
2023/10/06 03:46:57;;;;;;;15.80;12.27;;;12.40;99.10;;;;;;10414241;28;20210;-76
2023/10/06 03:52:19;;;;;;;22.67;13.93;;;12.40;99.20;;;;;;10418185;28;20537;-77
2023/10/06 03:57:43;;;;;;;19.40;13.07;;;12.30;99.10;;;;;;10415006;28;20226;-76
2023/10/06 04:03:06;;;;;;;19.60;11.90;;;12.30;99.20;;;;;;10408044;28;20214;-76
2023/10/06 04:08:29;;;;;;;12.10;7.20;;;12.30;99.10;;;;;;10408847;28;20237;-77
2023/10/06 04:13:52;;;;;;;9.00;7.07;;;12.30;99.10;;;;;;10450701;28;20206;-77
2023/10/06 04:19:16;;;;;;;8.80;6.50;;;12.30;99.30;;;;;;10413035;28;20218;-77
2023/10/06 04:24:38;;;;;;;15.17;11.27;;;12.30;99.20;;;;;;10448150;28;20293;-77
2023/10/06 04:30:06;;;;;;;88.60;35.33;;;12.20;99.30;;;;;;10435245;28;20233;-77
2023/10/06 04:35:29;;;;;;;9.90;7.40;;;12.20;99.30;;;;;;10420628;28;20308;-77
2023/10/06 04:40:52;;;;;;;22.77;12.77;;;12.20;99.10;;;;;;10446460;28;20220;-77
2023/10/06 04:46:16;;;;;;;58.73;28.70;;;12.20;99.20;;;;;;10396089;28;20272;-77
2023/10/06 04:51:38;;;;;;;25.87;16.17;;;12.20;99.30;;;;;;10430096;28;20245;-77
2023/10/06 04:57:00;;;;;;;10.77;8.40;;;12.10;99.30;;;;;;10426119;28;20713;-77
2023/10/06 05:02:24;;;;;;;12.97;7.53;;;12.20;99.50;;;;;;10402527;28;20226;-77
2023/10/06 05:07:47;;;;;;;32.50;18.00;;;12.10;99.30;;;;;;10404752;28;20195;-79
2023/10/06 05:13:10;;;;;;;9.90;6.83;;;12.10;99.60;;;;;;10401129;28;20682;-78
2023/10/06 05:18:35;;;;;;;65.13;27.30;;;12.10;99.40;;;;;;10410920;28;20718;-77
2023/10/06 05:23:57;;;;;;;24.07;12.63;;;12.10;99.40;;;;;;10410069;28;20205;-78
2023/10/06 05:29:19;;;;;;;11.10;7.33;;;12.00;99.40;;;;;;10422104;28;20588;-78
2023/10/06 05:34:43;;;;;;;11.20;7.80;;;12.00;99.60;;;;;;10412345;28;20229;-78
2023/10/06 05:40:12;;;;;;;14.47;10.30;;;12.10;99.70;;;;;;10451465;28;20299;-78
2023/10/06 05:45:34;;;;;;;34.53;18.57;;;12.10;99.60;;;;;;10446691;28;20641;-78
2023/10/06 05:51:04;;;;;;;25.83;14.10;;;12.10;99.40;;;;;;10413407;28;20210;-78
2023/10/06 05:56:29;;;;;;;19.97;13.40;;;12.10;99.40;;;;;;10444418;28;20221;-78
2023/10/06 06:01:56;;;;;;;11.57;8.90;;;12.10;99.30;;;;;;10422237;28;20225;-78
2023/10/06 06:07:19;;;;;;;28.27;16.53;;;12.20;99.30;;;;;;10427589;28;20204;-78
2023/10/06 06:12:43;;;;;;;15.97;9.53;;;12.20;99.50;;;;;;10438173;28;20202;-78
2023/10/06 06:18:05;;;;;;;18.30;12.87;;;12.20;99.50;;;;;;10430195;28;20213;-78
2023/10/06 06:23:33;;;;;;;13.63;9.60;;;12.20;99.50;;;;;;10450596;22;20231;-79
2023/10/06 06:28:55;;;;;;;13.07;8.10;;;12.20;99.40;;;;;;10434801;28;20689;-79
2023/10/06 06:34:17;;;;;;;11.37;8.57;;;12.20;99.50;;;;;;10443999;28;20217;-79
2023/10/06 06:39:44;;;;;;;14.10;9.63;;;12.20;99.60;;;;;;10448930;28;20222;-79
2023/10/06 06:45:07;;;;;;;14.83;8.90;;;12.30;99.80;;;;;;10429878;28;20271;-79
2023/10/06 06:50:29;;;;;;;10.07;7.70;;;12.30;99.90;;;;;;10452743;28;20235;-79
2023/10/06 06:55:53;;;;;;;18.67;10.77;;;12.40;99.90;;;;;;10439967;28;20248;-79
2023/10/06 07:01:16;;;;;;;9.87;7.50;;;12.50;99.90;;;;;;10423232;28;20299;-79
2023/10/06 07:06:38;;;;;;;11.90;8.00;;;12.50;99.90;;;;;;10385864;28;20227;-78
2023/10/06 07:12:03;;;;;;;11.47;8.57;;;12.60;99.90;;;;;;10382342;28;20696;-79
2023/10/06 07:17:26;;;;;;;11.37;9.20;;;12.60;99.90;;;;;;10448058;28;20712;-79
2023/10/06 07:22:49;;;;;;;10.80;8.63;;;12.70;99.90;;;;;;10450120;28;20348;-78
2023/10/06 07:28:13;;;;;;;11.40;9.23;;;12.80;99.90;;;;;;10403884;28;20402;-80
2023/10/06 07:33:35;;;;;;;11.80;8.73;;;12.90;99.90;;;;;;10427458;28;20232;-78
2023/10/06 07:38:57;;;;;;;13.30;9.50;;;12.90;99.90;;;;;;10453135;28;20218;-78
2023/10/06 07:44:21;;;;;;;15.30;9.53;;;13.00;99.90;;;;;;10437989;28;20235;-80
2023/10/06 07:49:43;;;;;;;13.00;9.30;;;13.20;99.90;;;;;;10418942;28;20255;-79
2023/10/06 07:55:06;;;;;;;10.83;8.83;;;13.30;99.90;;;;;;10436683;28;20687;-80
2023/10/06 08:00:32;;;;;;;12.87;8.00;;;13.40;99.90;;;;;;10440821;28;20218;-80
2023/10/06 08:05:55;;;;;;;14.10;9.00;;;13.50;99.90;;;;;;10444462;28;20265;-78
2023/10/06 08:11:18;;;;;;;12.27;8.23;;;13.60;99.90;;;;;;10440897;28;20714;-79
2023/10/06 08:16:45;;;;;;;13.33;8.67;;;13.70;99.90;;;;;;10425408;28;20226;-80
2023/10/06 08:22:07;;;;;;;9.00;8.13;;;13.80;99.90;;;;;;10437522;28;20695;-80
2023/10/06 08:27:30;;;;;;;10.10;7.50;;;13.90;99.90;;;;;;10451202;28;20220;-80
2023/10/06 08:32:54;;;;;;;7.93;7.20;;;14.00;99.90;;;;;;10426296;28;20225;-80
2023/10/06 08:38:17;;;;;;;11.07;6.60;;;14.20;99.90;;;;;;10387624;28;20222;-80
2023/10/06 08:43:39;;;;;;;8.97;6.40;;;14.30;99.80;;;;;;10410035;28;20233;-80
2023/10/06 08:49:03;;;;;;;8.50;6.87;;;14.40;99.90;;;;;;10411631;28;20206;-80
2023/10/06 08:54:26;;;;;;;7.23;6.50;;;14.50;99.90;;;;;;10431329;28;20681;-81
2023/10/06 08:59:49;;;;;;;7.57;6.80;;;14.60;99.90;;;;;;10418036;28;20229;-80
2023/10/06 09:05:13;;;;;;;7.87;7.00;;;14.70;99.90;;;;;;10411384;28;20205;-81
2023/10/06 09:10:37;;;;;;;6.83;6.13;;;14.90;99.60;;;;;;10433428;28;20210;-81
2023/10/06 09:16:02;;;;;;;6.87;5.43;;;15.00;99.80;;;;;;10426912;28;20218;-81
2023/10/06 09:21:26;;;;;;;10.10;7.30;;;15.10;99.60;;;;;;10431664;28;20233;-78
2023/10/06 09:26:48;;;;;;;9.00;7.53;;;15.30;99.30;;;;;;10403865;28;20238;-79
2023/10/06 09:32:20;;;;;;;7.67;5.83;;;15.40;99.50;;;;;;10418651;28;20233;-82
2023/10/06 09:37:44;;;;;;;8.67;6.30;;;15.50;99.40;;;;;;10420887;28;20230;-80
2023/10/06 09:43:08;;;;;;;8.60;6.30;;;15.70;99.50;;;;;;10418042;28;20226;-78
2023/10/06 09:48:33;;;;;;;8.77;7.10;;;15.80;99.30;;;;;;10423186;28;20183;-80
2023/10/06 09:53:58;;;;;;;8.20;6.33;;;15.90;99.30;;;;;;10414168;28;20587;-80
2023/10/06 09:59:21;;;;;;;8.30;5.90;;;16.00;99.10;;;;;;10396981;28;20238;-80
2023/10/06 10:04:46;;;;;;;7.80;6.37;;;16.10;99.10;;;;;;10407766;28;20234;-80
2023/10/06 10:10:12;;;;;;;7.80;5.80;;;16.10;99.10;;;;;;10410957;28;20288;-79
2023/10/06 10:15:46;;;;;;;7.83;5.50;;;16.20;98.80;;;;;;10413865;28;20216;-78
2023/10/06 10:21:11;;;;;;;6.37;5.23;;;16.30;99.10;;;;;;10425295;28;20240;-79
2023/10/06 10:26:37;;;;;;;11.10;6.77;;;16.40;98.80;;;;;;10421501;28;20194;-79
2023/10/06 10:32:02;;;;;;;6.93;5.87;;;16.40;98.70;;;;;;10425555;28;20440;-80
2023/10/06 10:37:26;;;;;;;8.37;6.83;;;16.40;98.90;;;;;;10410209;28;20228;-79
2023/10/06 10:42:54;;;;;;;6.73;5.70;;;16.50;98.90;;;;;;10412026;28;21329;-79
2023/10/06 10:48:18;;;;;;;8.00;6.00;;;16.50;99.00;;;;;;10418852;28;20198;-77
2023/10/06 10:53:43;;;;;;;9.30;6.40;;;16.60;98.40;;;;;;10408334;28;20219;-78
2023/10/06 10:59:08;;;;;;;7.70;6.37;;;16.80;98.80;;;;;;10417912;28;20249;-79
2023/10/06 11:04:31;;;;;;;13.60;6.60;;;16.90;99.10;;;;;;10415566;28;20207;-80
2023/10/06 11:09:53;;;;;;;12.80;6.17;;;17.00;98.70;;;;;;10416887;28;20223;-81
2023/10/06 11:15:27;;;;;;;8.97;6.20;;;17.10;98.40;;;;;;10408305;28;20285;-79
2023/10/06 11:20:49;;;;;;;9.40;6.03;;;17.20;98.40;;;;;;10410599;28;20698;-81
2023/10/06 11:26:12;;;;;;;10.93;7.37;;;17.20;98.50;;;;;;10403402;28;20207;-81
2023/10/06 11:31:35;;;;;;;10.33;7.00;;;17.40;97.90;;;;;;10423896;28;20216;-81
2023/10/06 11:36:58;;;;;;;12.40;7.13;;;17.40;97.80;;;;;;10412485;28;20221;-78
2023/10/06 11:42:32;;;;;;;7.50;6.67;;;17.50;97.70;;;;;;10423763;28;20225;-79
2023/10/06 11:47:56;;;;;;;6.80;4.00;;;17.50;98.00;;;;;;10430648;28;20189;-81
2023/10/06 11:53:21;;;;;;;7.33;5.20;;;17.50;98.10;;;;;;10443204;28;20305;-81
2023/10/06 11:58:45;;;;;;;6.70;5.80;;;17.50;98.20;;;;;;10458090;28;20217;-81
2023/10/06 12:04:23;;;;;;;6.77;6.13;;;17.50;98.00;;;;;;10438651;28;20202;-82
2023/10/06 12:09:46;;;;;;;8.50;6.03;;;17.50;98.20;;;;;;10429000;28;20214;-82
2023/10/06 12:15:13;;;;;;;9.10;5.80;;;17.50;97.90;;;;;;10429888;28;20209;-82
2023/10/06 12:20:36;;;;;;;7.03;5.37;;;17.60;97.90;;;;;;10481184;22;20245;-77
2023/10/06 12:25:59;;;;;;;13.10;6.00;;;17.60;97.70;;;;;;10499456;28;20199;-78
2023/10/06 12:31:21;;;;;;;9.30;5.63;;;17.70;97.40;;;;;;10492944;28;20245;-77
2023/10/06 12:36:47;;;;;;;7.47;4.97;;;17.70;97.00;;;;;;10469167;28;20222;-77
2023/10/06 12:42:11;;;;;;;9.17;5.20;;;17.70;97.10;;;;;;10421946;28;20715;-78
2023/10/06 12:47:34;;;;;;;11.13;6.30;;;17.70;97.20;;;;;;10430754;28;20194;-78
2023/10/06 12:52:58;;;;;;;9.13;5.50;;;17.70;98.00;;;;;;10457962;28;20242;-78
2023/10/06 12:58:20;;;;;;;8.40;5.93;;;17.70;97.60;;;;;;10460301;28;20218;-77
2023/10/06 13:03:43;;;;;;;6.50;4.57;;;17.70;97.70;;;;;;10480895;28;20241;-78
2023/10/06 13:09:08;;;;;;;7.80;5.27;;;17.70;98.20;;;;;;10476550;28;20643;-77
2023/10/06 13:14:31;;;;;;;9.83;5.63;;;17.70;98.30;;;;;;10496907;28;20215;-77
2023/10/06 13:19:53;;;;;;;7.67;5.63;;;17.80;97.40;;;;;;10494417;28;20443;-75
2023/10/06 13:25:18;;;;;;;10.60;5.63;;;17.90;97.40;;;;;;10482896;28;20722;-79
2023/10/06 13:30:40;;;;;;;9.10;6.07;;;18.00;97.50;;;;;;10462252;28;20221;-78
2023/10/06 13:36:05;;;;;;;6.97;4.90;;;18.10;96.40;;;;;;10475086;28;20285;-79
2023/10/06 13:41:29;;;;;;;9.80;5.73;;;18.30;96.50;;;;;;10443912;28;20300;-77
2023/10/06 13:46:52;;;;;;;7.50;4.97;;;18.30;96.10;;;;;;10456193;28;20213;-79
2023/10/06 13:52:16;;;;;;;5.27;4.20;;;18.40;96.30;;;;;;10457015;28;20277;-79
2023/10/06 13:57:41;;;;;;;5.20;4.30;;;18.50;96.00;;;;;;10452561;28;20233;-77
2023/10/06 14:03:06;;;;;;;9.00;5.60;;;18.50;95.60;;;;;;10476701;28;20228;-78
2023/10/06 14:08:28;;;;;;;9.67;4.73;;;18.50;95.10;;;;;;10451472;28;20572;-78
2023/10/06 14:13:56;;;;;;;8.47;5.10;;;18.60;95.30;;;;;;10449850;28;20228;-78
2023/10/06 14:19:18;;;;;;;8.07;5.63;;;18.60;95.40;;;;;;10418236;28;20217;-78
2023/10/06 14:24:41;;;;;;;9.30;5.90;;;18.70;95.10;;;;;;10453252;28;20225;-78
2023/10/06 14:30:08;;;;;;;11.80;5.40;;;18.60;95.20;;;;;;10456852;28;20198;-77
2023/10/06 14:35:45;;;;;;;8.20;6.67;;;18.60;96.40;;;;;;10478211;28;20202;-79
2023/10/06 14:46:51;;;;;;;8.33;5.43;;;18.40;97.20;;;;;;10457599;28;20194;-78
2023/10/06 14:52:14;;;;;;;6.53;4.97;;;18.40;96.20;;;;;;10474869;28;20264;-77
2023/10/06 14:57:37;;;;;;;6.97;4.37;;;18.50;96.30;;;;;;10460482;28;20279;-79
2023/10/06 15:03:02;;;;;;;8.33;5.80;;;18.60;96.00;;;;;;10485454;28;20225;-78
2023/10/06 15:08:24;;;;;;;7.33;4.90;;;18.60;96.40;;;;;;10465004;28;20193;-77
2023/10/06 15:13:47;;;;;;;8.40;5.43;;;18.60;96.30;;;;;;10461305;28;20225;-78
2023/10/06 15:19:13;;;;;;;5.93;4.77;;;18.60;96.60;;;;;;10457254;28;20229;-79
2023/10/06 15:24:36;;;;;;;8.30;4.90;;;18.50;96.90;;;;;;10460582;28;20613;-78
2023/10/06 15:29:59;;;;;;;7.80;5.53;;;18.50;97.30;;;;;;10431002;28;20232;-77
2023/10/06 15:35:32;;;;;;;11.50;6.10;;;18.40;97.20;;;;;;10431946;28;20224;-77
2023/10/06 15:41:08;;;;;;;12.17;6.47;;;18.30;97.70;;;;;;10461133;28;20249;-77
2023/10/06 15:46:32;;;;;;;8.13;4.73;;;18.20;97.80;;;;;;10459931;28;20202;-78
2023/10/06 15:51:56;;;;;;;10.30;4.50;;;18.10;97.80;;;;;;10456661;28;20225;-76
2023/10/06 15:57:18;;;;;;;7.63;5.20;;;18.10;98.00;;;;;;10457405;28;20271;-78
2023/10/06 16:02:43;;;;;;;5.80;4.20;;;18.10;98.40;;;;;;10462233;28;20225;-77
2023/10/06 16:08:07;;;;;;;6.20;4.33;;;18.10;97.30;;;;;;10458953;28;20201;-77
2023/10/06 16:13:31;;;;;;;6.90;4.53;;;18.00;97.50;;;;;;10462518;28;20225;-78
2023/10/06 16:18:53;;;;;;;7.47;5.07;;;18.00;97.50;;;;;;10457761;28;20249;-78
2023/10/06 16:24:17;;;;;;;7.17;4.60;;;18.00;97.60;;;;;;10454452;28;20707;-78
2023/10/06 16:29:39;;;;;;;7.70;5.03;;;17.90;97.00;;;;;;10451115;28;20201;-77
2023/10/06 16:35:02;;;;;;;6.80;3.87;;;17.90;97.00;;;;;;10444256;28;20217;-76
2023/10/06 16:40:26;;;;;;;9.00;5.07;;;17.80;96.60;;;;;;10455302;28;20245;-78
2023/10/06 16:45:48;;;;;;;6.40;5.23;;;17.80;97.00;;;;;;10452725;28;20214;-78
2023/10/06 16:51:10;;;;;;;5.93;5.07;;;17.70;97.40;;;;;;10455406;28;20217;-78
2023/10/06 16:56:34;;;;;;;5.57;4.37;;;17.70;97.40;;;;;;10415535;28;20194;-77
2023/10/06 17:01:57;;;;;;;8.90;5.90;;;17.60;97.70;;;;;;10468561;28;20235;-78
2023/10/06 17:07:21;;;;;;;8.33;6.40;;;17.60;97.80;;;;;;10453005;28;20197;-77
2023/10/06 17:12:44;;;;;;;7.77;5.40;;;17.50;97.80;;;;;;10453218;28;20221;-78
2023/10/06 17:18:07;;;;;;;11.17;8.10;;;17.50;97.90;;;;;;10422732;28;20222;-78
2023/10/06 17:23:30;;;;;;;13.37;9.50;;;17.50;98.10;;;;;;10444272;28;20241;-78
2023/10/06 17:28:53;;;;;;;9.23;7.83;;;17.40;98.20;;;;;;10448731;28;20694;-78
2023/10/06 17:34:17;;;;;;;10.83;7.17;;;17.40;98.20;;;;;;10432095;28;20222;-78
2023/10/06 17:39:39;;;;;;;10.30;7.10;;;17.30;98.50;;;;;;10445763;28;20741;-78
2023/10/06 17:45:05;;;;;;;8.43;5.80;;;17.20;98.50;;;;;;10431747;28;20226;-78
2023/10/06 17:50:28;;;;;;;7.07;5.77;;;17.20;98.60;;;;;;10436558;28;20197;-77
2023/10/06 17:55:53;;;;;;;8.63;7.23;;;17.10;98.40;;;;;;10452419;28;20202;-78
2023/10/06 18:01:18;;;;;;;12.43;8.83;;;17.00;98.40;;;;;;10450034;28;20222;-77
2023/10/06 18:06:40;;;;;;;10.93;7.53;;;16.90;98.50;;;;;;10411876;28;20893;-77
2023/10/06 18:12:02;;;;;;;13.20;8.37;;;16.90;98.40;;;;;;10438826;28;20763;-77
2023/10/06 18:17:26;;;;;;;9.50;6.17;;;16.80;98.20;;;;;;10422795;28;20221;-77
2023/10/06 18:22:49;;;;;;;8.97;6.30;;;16.70;97.90;;;;;;10437871;28;20232;-76
2023/10/06 18:28:11;;;;;;;7.07;5.13;;;16.60;98.00;;;;;;10446449;28;20203;-78
2023/10/06 18:33:35;;;;;;;8.97;6.77;;;16.40;98.10;;;;;;10441335;28;20225;-76
2023/10/06 18:38:57;;;;;;;12.33;6.77;;;16.40;98.20;;;;;;10437718;28;20236;-76
2023/10/06 18:44:21;;;;;;;9.10;6.03;;;16.30;98.10;;;;;;10452306;28;20222;-76
2023/10/06 18:49:44;;;;;;;8.70;7.37;;;16.20;98.00;;;;;;10437817;28;20663;-77
2023/10/06 18:55:08;;;;;;;9.13;6.80;;;16.20;98.40;;;;;;10450932;28;20236;-75
2023/10/06 19:00:31;;;;;;;7.60;6.20;;;16.10;98.30;;;;;;10451593;28;20261;-77
2023/10/06 19:06:03;;;;;;;9.20;6.60;;;16.00;98.20;;;;;;10446724;28;20264;-77
2023/10/06 19:11:26;;;;;;;11.83;8.43;;;15.90;98.30;;;;;;10429505;28;20731;-76
2023/10/06 19:16:48;;;;;;;10.10;6.90;;;15.80;98.20;;;;;;10425243;28;20207;-76
2023/10/06 19:22:12;;;;;;;7.60;6.70;;;15.80;98.50;;;;;;10416123;28;20602;-78
2023/10/06 19:27:34;;;;;;;10.67;6.90;;;15.70;98.40;;;;;;10432357;28;20205;-78
2023/10/06 19:32:57;;;;;;;8.97;6.67;;;15.60;98.30;;;;;;10424304;28;20227;-78
2023/10/06 19:38:20;;;;;;;13.70;7.30;;;15.60;98.10;;;;;;10412136;28;20311;-77
2023/10/06 19:43:43;;;;;;;10.23;6.97;;;15.50;98.20;;;;;;10420915;28;20237;-77
2023/10/06 19:49:05;;;;;;;14.67;9.27;;;15.40;98.20;;;;;;10418200;28;20209;-76
2023/10/06 19:54:29;;;;;;;9.10;6.67;;;15.30;98.40;;;;;;10447990;28;20226;-77
2023/10/06 19:59:51;;;;;;;11.13;7.70;;;15.30;98.20;;;;;;10426717;28;20228;-77
2023/10/06 20:05:13;;;;;;;10.20;6.27;;;15.30;98.00;;;;;;10446894;28;20233;-77
2023/10/06 20:10:37;;;;;;;7.07;5.93;;;15.20;97.60;;;;;;10442354;28;20564;-77
2023/10/06 20:15:59;;;;;;;11.83;8.40;;;15.20;98.10;;;;;;10419519;28;20213;-76
2023/10/06 20:21:22;;;;;;;18.00;10.87;;;15.20;98.00;;;;;;10431730;28;20240;-77
2023/10/06 20:26:45;;;;;;;21.43;14.17;;;15.10;97.70;;;;;;10435333;28;20206;-77
2023/10/06 20:32:07;;;;;;;17.37;9.70;;;15.10;97.60;;;;;;10435435;28;20600;-77
2023/10/06 20:37:29;;;;;;;15.20;8.33;;;15.00;97.40;;;;;;10444542;28;20213;-76
2023/10/06 20:42:55;;;;;;;11.37;7.10;;;14.90;97.50;;;;;;10429509;28;20233;-76
2023/10/06 20:48:17;;;;;;;14.03;8.47;;;14.90;97.40;;;;;;10428510;28;20190;-76
2023/10/06 20:53:39;;;;;;;14.07;6.70;;;14.80;97.40;;;;;;10439301;28;20240;-77
2023/10/06 20:59:05;;;;;;;10.20;7.63;;;14.70;97.50;;;;;;10432371;28;20221;-77
2023/10/06 21:04:27;;;;;;;8.97;7.07;;;14.70;97.70;;;;;;10432103;28;20222;-77
2023/10/06 21:09:50;;;;;;;15.03;7.43;;;14.70;97.90;;;;;;10430893;28;20672;-77
2023/10/06 21:15:14;;;;;;;11.03;8.70;;;14.70;98.20;;;;;;10427074;28;20222;-77
2023/10/06 21:20:36;;;;;;;10.77;8.40;;;14.60;98.40;;;;;;10427762;28;20210;-77
2023/10/06 21:25:59;;;;;;;10.07;6.87;;;14.60;98.60;;;;;;10440867;28;20213;-77
2023/10/06 21:31:23;;;;;;;9.70;6.90;;;14.60;98.80;;;;;;10429631;28;20213;-77
2023/10/06 21:36:46;;;;;;;9.47;7.33;;;14.60;98.90;;;;;;10438790;28;20593;-77
2023/10/06 21:42:08;;;;;;;7.10;5.80;;;14.60;99.10;;;;;;10424480;28;20230;-77
2023/10/06 21:47:32;;;;;;;11.23;6.40;;;14.50;99.00;;;;;;10414519;28;20206;-76
2023/10/06 21:52:54;;;;;;;9.77;6.90;;;14.50;99.30;;;;;;10427245;28;20804;-76
2023/10/06 21:58:16;;;;;;;8.53;6.30;;;14.40;99.40;;;;;;10421005;28;20706;-76
2023/10/06 22:03:40;;;;;;;8.67;5.73;;;14.30;99.60;;;;;;10416006;28;20226;-77
2023/10/06 22:09:02;;;;;;;9.17;6.30;;;14.30;99.60;;;;;;10423169;28;20203;-77
2023/10/06 22:14:26;;;;;;;8.33;6.10;;;14.30;99.90;;;;;;10419849;28;20541;-76
2023/10/06 22:19:50;;;;;;;6.60;4.90;;;14.20;99.90;;;;;;10430346;28;20704;-77
2023/10/06 22:25:13;;;;;;;10.57;6.20;;;14.20;99.90;;;;;;10420446;28;20234;-77
2023/10/06 22:30:36;;;;;;;13.43;6.80;;;14.20;99.90;;;;;;10437710;28;20201;-76
2023/10/06 22:36:00;;;;;;;6.10;5.13;;;14.20;99.90;;;;;;10423846;28;20221;-78
2023/10/06 22:41:23;;;;;;;8.23;6.07;;;14.10;99.90;;;;;;10433051;28;20598;-78
2023/10/06 22:46:45;;;;;;;7.30;6.40;;;14.10;99.90;;;;;;10420269;28;20209;-76
2023/10/06 22:52:09;;;;;;;8.27;6.63;;;14.00;99.90;;;;;;10445458;28;20221;-76
2023/10/06 22:57:31;;;;;;;7.47;5.37;;;13.90;99.90;;;;;;10428486;28;20220;-78
2023/10/06 23:02:53;;;;;;;10.50;7.40;;;13.90;99.90;;;;;;10433664;28;20221;-77
2023/10/06 23:08:17;;;;;;;8.73;6.67;;;13.90;99.90;;;;;;10459531;28;21585;-77
2023/10/06 23:13:40;;;;;;;7.63;5.33;;;13.90;99.90;;;;;;10469577;28;20303;-77
2023/10/06 23:19:04;;;;;;;14.60;8.40;;;13.90;99.90;;;;;;10451389;28;20231;-78
2023/10/06 23:24:47;;;;;;;24.33;11.90;;;13.80;99.90;;;;;;10454412;28;20248;-77
2023/10/06 23:30:12;;;;;;;11.80;7.10;;;13.80;99.70;;;;;;10462708;28;20192;-77
2023/10/06 23:35:35;;;;;;;8.57;5.90;;;13.80;99.10;;;;;;10470479;28;20206;-78
2023/10/06 23:41:00;;;;;;;6.97;5.10;;;13.70;98.80;;;;;;10467300;28;20234;-78
2023/10/06 23:46:25;;;;;;;11.60;8.00;;;13.60;98.40;;;;;;10469748;28;20196;-77
2023/10/06 23:51:47;;;;;;;10.83;7.43;;;13.50;98.50;;;;;;10465526;28;20225;-77
2023/10/06 23:57:14;;;;;;;10.63;5.73;;;13.40;98.20;;;;;;10468583;28;20528;-77
